sensor_id;sensor_type;location;lat;lon;timestamp;P1;durP1;ratioP1;P2;durP2;ratioP2
17763;SDS011;22245;52.832;13.816;2023-04-24T00:00:06;9.45;;;6.75;;
17763;SDS011;22245;52.832;13.816;2023-04-24T00:03:29;9.45;;;5.10;;
17763;SDS011;22245;52.832;13.816;2023-04-24T00:06:51;9.63;;;6.50;;
17763;SDS011;22245;52.832;13.816;2023-04-24T00:10:17;8.70;;;6.72;;
17763;SDS011;22245;52.832;13.816;2023-04-24T00:13:39;8.02;;;5.85;;
17763;SDS011;22245;52.832;13.816;2023-04-24T00:17:01;8.95;;;5.80;;
17763;SDS011;22245;52.832;13.816;2023-04-24T00:20:23;8.75;;;5.43;;
17763;SDS011;22245;52.832;13.816;2023-04-24T00:23:45;11.95;;;5.40;;
17763;SDS011;22245;52.832;13.816;2023-04-24T00:27:06;6.18;;;5.18;;
17763;SDS011;22245;52.832;13.816;2023-04-24T00:30:29;11.25;;;6.38;;
17763;SDS011;22245;52.832;13.816;2023-04-24T00:33:51;8.57;;;5.57;;
17763;SDS011;22245;52.832;13.816;2023-04-24T00:37:14;12.35;;;7.40;;
17763;SDS011;22245;52.832;13.816;2023-04-24T00:40:37;14.00;;;9.00;;
17763;SDS011;22245;52.832;13.816;2023-04-24T00:43:58;13.23;;;9.05;;
17763;SDS011;22245;52.832;13.816;2023-04-24T00:47:21;13.98;;;9.00;;
17763;SDS011;22245;52.832;13.816;2023-04-24T00:50:43;13.45;;;9.32;;
17763;SDS011;22245;52.832;13.816;2023-04-24T00:54:06;14.00;;;9.55;;
17763;SDS011;22245;52.832;13.816;2023-04-24T00:57:28;18.83;;;10.60;;
17763;SDS011;22245;52.832;13.816;2023-04-24T01:00:50;12.55;;;8.90;;
17763;SDS011;22245;52.832;13.816;2023-04-24T01:04:15;13.85;;;8.88;;
17763;SDS011;22245;52.832;13.816;2023-04-24T01:07:40;9.55;;;6.70;;
17763;SDS011;22245;52.832;13.816;2023-04-24T01:11:05;10.77;;;6.90;;
17763;SDS011;22245;52.832;13.816;2023-04-24T01:14:27;9.57;;;6.97;;
17763;SDS011;22245;52.832;13.816;2023-04-24T01:17:49;11.73;;;8.52;;
17763;SDS011;22245;52.832;13.816;2023-04-24T01:21:12;12.15;;;8.80;;
17763;SDS011;22245;52.832;13.816;2023-04-24T01:24:37;10.75;;;8.18;;
17763;SDS011;22245;52.832;13.816;2023-04-24T01:27:59;12.45;;;8.60;;
17763;SDS011;22245;52.832;13.816;2023-04-24T01:31:21;13.70;;;8.95;;
17763;SDS011;22245;52.832;13.816;2023-04-24T01:34:43;12.32;;;9.18;;
17763;SDS011;22245;52.832;13.816;2023-04-24T01:38:05;12.93;;;9.55;;
17763;SDS011;22245;52.832;13.816;2023-04-24T01:41:30;13.07;;;9.05;;
17763;SDS011;22245;52.832;13.816;2023-04-24T01:44:52;12.48;;;8.70;;
17763;SDS011;22245;52.832;13.816;2023-04-24T01:48:15;12.98;;;9.57;;
17763;SDS011;22245;52.832;13.816;2023-04-24T01:51:36;11.43;;;8.80;;
17763;SDS011;22245;52.832;13.816;2023-04-24T01:54:59;14.32;;;8.45;;
17763;SDS011;22245;52.832;13.816;2023-04-24T01:58:23;11.88;;;8.88;;
17763;SDS011;22245;52.832;13.816;2023-04-24T02:01:44;13.00;;;9.52;;
17763;SDS011;22245;52.832;13.816;2023-04-24T02:05:06;12.85;;;9.82;;
17763;SDS011;22245;52.832;13.816;2023-04-24T02:08:29;13.77;;;9.50;;
17763;SDS011;22245;52.832;13.816;2023-04-24T02:11:51;13.98;;;10.27;;
17763;SDS011;22245;52.832;13.816;2023-04-24T02:15:14;13.25;;;9.93;;
17763;SDS011;22245;52.832;13.816;2023-04-24T02:18:37;12.75;;;9.75;;
17763;SDS011;22245;52.832;13.816;2023-04-24T02:21:58;14.00;;;9.82;;
17763;SDS011;22245;52.832;13.816;2023-04-24T02:25:20;13.23;;;9.45;;
17763;SDS011;22245;52.832;13.816;2023-04-24T02:28:41;12.30;;;9.35;;
17763;SDS011;22245;52.832;13.816;2023-04-24T02:32:05;12.15;;;9.02;;
17763;SDS011;22245;52.832;13.816;2023-04-24T02:35:27;12.45;;;9.23;;
17763;SDS011;22245;52.832;13.816;2023-04-24T02:38:48;14.32;;;10.18;;
17763;SDS011;22245;52.832;13.816;2023-04-24T02:42:09;13.77;;;9.93;;
17763;SDS011;22245;52.832;13.816;2023-04-24T02:45:31;13.30;;;9.57;;
17763;SDS011;22245;52.832;13.816;2023-04-24T02:48:55;14.85;;;9.82;;
17763;SDS011;22245;52.832;13.816;2023-04-24T02:52:17;17.48;;;9.65;;
17763;SDS011;22245;52.832;13.816;2023-04-24T02:55:39;13.82;;;9.55;;
17763;SDS011;22245;52.832;13.816;2023-04-24T02:59:01;14.90;;;10.25;;
17763;SDS011;22245;52.832;13.816;2023-04-24T03:02:23;13.48;;;9.18;;
17763;SDS011;22245;52.832;13.816;2023-04-24T03:05:46;13.20;;;8.88;;
17763;SDS011;22245;52.832;13.816;2023-04-24T03:09:07;11.63;;;8.73;;
17763;SDS011;22245;52.832;13.816;2023-04-24T03:12:29;11.40;;;8.65;;
17763;SDS011;22245;52.832;13.816;2023-04-24T03:15:50;10.85;;;8.15;;
17763;SDS011;22245;52.832;13.816;2023-04-24T03:19:13;12.13;;;8.63;;
17763;SDS011;22245;52.832;13.816;2023-04-24T03:22:47;11.27;;;8.10;;
17763;SDS011;22245;52.832;13.816;2023-04-24T03:26:09;11.82;;;8.07;;
17763;SDS011;22245;52.832;13.816;2023-04-24T03:29:42;10.45;;;7.82;;
17763;SDS011;22245;52.832;13.816;2023-04-24T03:33:04;11.05;;;8.50;;
17763;SDS011;22245;52.832;13.816;2023-04-24T03:36:30;10.30;;;7.95;;
17763;SDS011;22245;52.832;13.816;2023-04-24T03:39:53;9.65;;;7.50;;
17763;SDS011;22245;52.832;13.816;2023-04-24T03:43:17;9.68;;;7.35;;
17763;SDS011;22245;52.832;13.816;2023-04-24T03:46:40;9.70;;;7.68;;
17763;SDS011;22245;52.832;13.816;2023-04-24T03:50:02;10.30;;;7.90;;
17763;SDS011;22245;52.832;13.816;2023-04-24T03:53:25;10.68;;;8.65;;
17763;SDS011;22245;52.832;13.816;2023-04-24T03:56:50;11.20;;;8.18;;
17763;SDS011;22245;52.832;13.816;2023-04-24T04:00:12;9.68;;;7.80;;
17763;SDS011;22245;52.832;13.816;2023-04-24T04:03:38;11.35;;;8.05;;
17763;SDS011;22245;52.832;13.816;2023-04-24T04:07:00;10.23;;;8.15;;
17763;SDS011;22245;52.832;13.816;2023-04-24T04:10:23;9.20;;;7.75;;
17763;SDS011;22245;52.832;13.816;2023-04-24T04:13:46;10.65;;;8.18;;
17763;SDS011;22245;52.832;13.816;2023-04-24T04:17:11;11.38;;;8.60;;
17763;SDS011;22245;52.832;13.816;2023-04-24T04:20:33;9.57;;;7.72;;
17763;SDS011;22245;52.832;13.816;2023-04-24T04:23:55;10.20;;;8.07;;
17763;SDS011;22245;52.832;13.816;2023-04-24T04:27:25;10.68;;;7.78;;
17763;SDS011;22245;52.832;13.816;2023-04-24T04:30:54;10.60;;;8.13;;
17763;SDS011;22245;52.832;13.816;2023-04-24T04:34:17;13.98;;;7.93;;
17763;SDS011;22245;52.832;13.816;2023-04-24T04:37:39;12.05;;;8.35;;
17763;SDS011;22245;52.832;13.816;2023-04-24T04:41:07;9.40;;;7.93;;
17763;SDS011;22245;52.832;13.816;2023-04-24T04:44:28;12.10;;;8.65;;
17763;SDS011;22245;52.832;13.816;2023-04-24T04:47:53;11.63;;;8.30;;
17763;SDS011;22245;52.832;13.816;2023-04-24T04:51:16;10.43;;;8.23;;
17763;SDS011;22245;52.832;13.816;2023-04-24T04:54:38;14.30;;;8.77;;
17763;SDS011;22245;52.832;13.816;2023-04-24T04:58:00;12.13;;;10.82;;
17763;SDS011;22245;52.832;13.816;2023-04-24T05:01:22;15.18;;;12.20;;
17763;SDS011;22245;52.832;13.816;2023-04-24T05:04:46;13.13;;;10.35;;
17763;SDS011;22245;52.832;13.816;2023-04-24T05:08:09;17.58;;;12.93;;
17763;SDS011;22245;52.832;13.816;2023-04-24T05:11:46;15.70;;;12.85;;
17763;SDS011;22245;52.832;13.816;2023-04-24T05:15:09;15.00;;;11.50;;
17763;SDS011;22245;52.832;13.816;2023-04-24T05:18:32;13.80;;;11.05;;
17763;SDS011;22245;52.832;13.816;2023-04-24T05:21:56;16.13;;;12.82;;
17763;SDS011;22245;52.832;13.816;2023-04-24T05:25:19;17.90;;;14.00;;
17763;SDS011;22245;52.832;13.816;2023-04-24T05:28:57;17.00;;;12.13;;
17763;SDS011;22245;52.832;13.816;2023-04-24T05:32:19;15.00;;;11.88;;
17763;SDS011;22245;52.832;13.816;2023-04-24T05:35:41;17.38;;;12.52;;
17763;SDS011;22245;52.832;13.816;2023-04-24T05:39:08;15.40;;;11.00;;
17763;SDS011;22245;52.832;13.816;2023-04-24T05:42:30;14.23;;;10.38;;
17763;SDS011;22245;52.832;13.816;2023-04-24T05:45:52;14.13;;;10.48;;
17763;SDS011;22245;52.832;13.816;2023-04-24T05:49:15;14.55;;;10.35;;
17763;SDS011;22245;52.832;13.816;2023-04-24T05:52:39;14.27;;;10.20;;
17763;SDS011;22245;52.832;13.816;2023-04-24T05:56:16;17.08;;;10.73;;
17763;SDS011;22245;52.832;13.816;2023-04-24T06:03:42;18.25;;;11.15;;
17763;SDS011;22245;52.832;13.816;2023-04-24T06:07:05;16.92;;;10.93;;
17763;SDS011;22245;52.832;13.816;2023-04-24T06:10:28;12.88;;;9.32;;
17763;SDS011;22245;52.832;13.816;2023-04-24T06:13:55;10.65;;;8.70;;
17763;SDS011;22245;52.832;13.816;2023-04-24T06:17:33;10.15;;;7.40;;
17763;SDS011;22245;52.832;13.816;2023-04-24T06:36:07;8.27;;;5.07;;
17763;SDS011;22245;52.832;13.816;2023-04-24T07:16:48;4.78;;;3.50;;
17763;SDS011;22245;52.832;13.816;2023-04-24T07:31:45;4.10;;;3.10;;
17763;SDS011;22245;52.832;13.816;2023-04-24T07:39:47;4.65;;;2.70;;
17763;SDS011;22245;52.832;13.816;2023-04-24T07:43:14;4.75;;;2.75;;
17763;SDS011;22245;52.832;13.816;2023-04-24T07:52:26;2.65;;;2.20;;
17763;SDS011;22245;52.832;13.816;2023-04-24T08:00:04;5.50;;;2.55;;
17763;SDS011;22245;52.832;13.816;2023-04-24T08:04:05;2.10;;;1.90;;
17763;SDS011;22245;52.832;13.816;2023-04-24T08:07:59;3.88;;;2.17;;
17763;SDS011;22245;52.832;13.816;2023-04-24T08:11:22;3.88;;;1.83;;
17763;SDS011;22245;52.832;13.816;2023-04-24T08:14:46;3.85;;;2.00;;
17763;SDS011;22245;52.832;13.816;2023-04-24T08:18:46;2.53;;;1.90;;
17763;SDS011;22245;52.832;13.816;2023-04-24T08:22:12;2.17;;;1.95;;
17763;SDS011;22245;52.832;13.816;2023-04-24T08:25:40;4.50;;;1.70;;
17763;SDS011;22245;52.832;13.816;2023-04-24T08:29:16;2.28;;;1.80;;
17763;SDS011;22245;52.832;13.816;2023-04-24T08:33:25;3.20;;;1.70;;
17763;SDS011;22245;52.832;13.816;2023-04-24T08:37:33;2.00;;;1.50;;
17763;SDS011;22245;52.832;13.816;2023-04-24T08:49:14;4.32;;;1.50;;
17763;SDS011;22245;52.832;13.816;2023-04-24T08:57:15;5.15;;;1.40;;
17763;SDS011;22245;52.832;13.816;2023-04-24T09:04:53;1.58;;;1.30;;
17763;SDS011;22245;52.832;13.816;2023-04-24T09:18:06;2.17;;;1.40;;
17763;SDS011;22245;52.832;13.816;2023-04-24T09:26:34;1.80;;;1.17;;
17763;SDS011;22245;52.832;13.816;2023-04-24T10:20:04;1.85;;;0.73;;
17763;SDS011;22245;52.832;13.816;2023-04-24T10:23:48;1.63;;;0.70;;
17763;SDS011;22245;52.832;13.816;2023-04-24T10:27:19;1.17;;;0.63;;
17763;SDS011;22245;52.832;13.816;2023-04-24T10:46:26;1.50;;;0.75;;
17763;SDS011;22245;52.832;13.816;2023-04-24T10:49:53;1.80;;;0.80;;
17763;SDS011;22245;52.832;13.816;2023-04-24T11:17:08;1.80;;;0.80;;
17763;SDS011;22245;52.832;13.816;2023-04-24T11:21:15;1.45;;;0.70;;
17763;SDS011;22245;52.832;13.816;2023-04-24T11:44:26;2.38;;;0.90;;
17763;SDS011;22245;52.832;13.816;2023-04-24T11:49:40;7.38;;;1.02;;
17763;SDS011;22245;52.832;13.816;2023-04-24T11:52:25;2.53;;;1.23;;
17763;SDS011;22245;52.832;13.816;2023-04-24T12:00:33;2.65;;;1.30;;
17763;SDS011;22245;52.832;13.816;2023-04-24T12:04:02;2.83;;;0.98;;
17763;SDS011;22245;52.832;13.816;2023-04-24T12:21:37;2.50;;;1.20;;
17763;SDS011;22245;52.832;13.816;2023-04-24T12:26:37;1.63;;;0.90;;
17763;SDS011;22245;52.832;13.816;2023-04-24T12:36:10;2.78;;;1.13;;
17763;SDS011;22245;52.832;13.816;2023-04-24T12:39:59;4.30;;;1.90;;
17763;SDS011;22245;52.832;13.816;2023-04-24T12:43:22;3.08;;;1.35;;
17763;SDS011;22245;52.832;13.816;2023-04-24T12:46:47;3.20;;;1.58;;
17763;SDS011;22245;52.832;13.816;2023-04-24T12:50:10;4.32;;;1.60;;
17763;SDS011;22245;52.832;13.816;2023-04-24T12:59:16;1.35;;;1.05;;
17763;SDS011;22245;52.832;13.816;2023-04-24T13:07:08;4.13;;;1.77;;
17763;SDS011;22245;52.832;13.816;2023-04-24T13:11:11;2.20;;;1.55;;
17763;SDS011;22245;52.832;13.816;2023-04-24T13:18:51;1.35;;;1.20;;
17763;SDS011;22245;52.832;13.816;2023-04-24T13:27:04;1.23;;;1.05;;
17763;SDS011;22245;52.832;13.816;2023-04-24T13:31:56;1.65;;;1.33;;
17763;SDS011;22245;52.832;13.816;2023-04-24T13:35:17;3.67;;;2.15;;
17763;SDS011;22245;52.832;13.816;2023-04-24T13:38:38;3.35;;;1.23;;
17763;SDS011;22245;52.832;13.816;2023-04-24T13:42:00;2.40;;;2.13;;
17763;SDS011;22245;52.832;13.816;2023-04-24T13:45:24;1.63;;;1.30;;
17763;SDS011;22245;52.832;13.816;2023-04-24T13:48:46;4.50;;;1.40;;
17763;SDS011;22245;52.832;13.816;2023-04-24T13:52:08;2.58;;;1.50;;
17763;SDS011;22245;52.832;13.816;2023-04-24T13:55:30;2.97;;;1.40;;
17763;SDS011;22245;52.832;13.816;2023-04-24T13:58:52;1.20;;;1.00;;
17763;SDS011;22245;52.832;13.816;2023-04-24T14:02:14;3.90;;;1.08;;
17763;SDS011;22245;52.832;13.816;2023-04-24T14:05:38;1.92;;;1.25;;
17763;SDS011;22245;52.832;13.816;2023-04-24T14:08:59;3.05;;;1.20;;
17763;SDS011;22245;52.832;13.816;2023-04-24T14:12:21;1.88;;;0.93;;
17763;SDS011;22245;52.832;13.816;2023-04-24T14:15:43;1.38;;;1.20;;
17763;SDS011;22245;52.832;13.816;2023-04-24T14:19:04;2.40;;;1.20;;
17763;SDS011;22245;52.832;13.816;2023-04-24T14:22:27;2.13;;;1.30;;
17763;SDS011;22245;52.832;13.816;2023-04-24T14:25:49;2.70;;;1.20;;
17763;SDS011;22245;52.832;13.816;2023-04-24T14:29:12;3.08;;;1.52;;
17763;SDS011;22245;52.832;13.816;2023-04-24T14:32:34;2.42;;;1.48;;
17763;SDS011;22245;52.832;13.816;2023-04-24T14:35:56;3.30;;;1.40;;
17763;SDS011;22245;52.832;13.816;2023-04-24T14:39:19;3.50;;;1.27;;
17763;SDS011;22245;52.832;13.816;2023-04-24T14:42:41;4.38;;;1.55;;
17763;SDS011;22245;52.832;13.816;2023-04-24T14:46:02;1.85;;;1.45;;
17763;SDS011;22245;52.832;13.816;2023-04-24T14:49:24;4.57;;;1.40;;
17763;SDS011;22245;52.832;13.816;2023-04-24T14:52:47;1.38;;;1.27;;
17763;SDS011;22245;52.832;13.816;2023-04-24T14:56:09;1.40;;;1.20;;
17763;SDS011;22245;52.832;13.816;2023-04-24T14:59:30;2.20;;;1.30;;
17763;SDS011;22245;52.832;13.816;2023-04-24T15:02:52;2.67;;;1.05;;
17763;SDS011;22245;52.832;13.816;2023-04-24T15:06:15;3.83;;;1.20;;
17763;SDS011;22245;52.832;13.816;2023-04-24T15:09:37;3.33;;;1.45;;
17763;SDS011;22245;52.832;13.816;2023-04-24T15:13:00;2.38;;;1.85;;
17763;SDS011;22245;52.832;13.816;2023-04-24T15:16:22;1.55;;;1.00;;
17763;SDS011;22245;52.832;13.816;2023-04-24T15:19:45;2.78;;;1.30;;
17763;SDS011;22245;52.832;13.816;2023-04-24T15:23:06;1.00;;;0.90;;
17763;SDS011;22245;52.832;13.816;2023-04-24T15:26:29;1.50;;;1.10;;
17763;SDS011;22245;52.832;13.816;2023-04-24T15:29:52;1.73;;;0.98;;
17763;SDS011;22245;52.832;13.816;2023-04-24T15:33:14;1.40;;;0.95;;
17763;SDS011;22245;52.832;13.816;2023-04-24T15:36:35;1.63;;;1.00;;
17763;SDS011;22245;52.832;13.816;2023-04-24T15:39:57;1.27;;;1.02;;
17763;SDS011;22245;52.832;13.816;2023-04-24T15:43:19;1.10;;;1.00;;
17763;SDS011;22245;52.832;13.816;2023-04-24T15:46:43;3.28;;;1.13;;
17763;SDS011;22245;52.832;13.816;2023-04-24T15:50:05;2.28;;;1.10;;
17763;SDS011;22245;52.832;13.816;2023-04-24T15:53:31;1.58;;;0.95;;
17763;SDS011;22245;52.832;13.816;2023-04-24T15:56:53;1.70;;;0.98;;
17763;SDS011;22245;52.832;13.816;2023-04-24T16:00:15;1.83;;;1.20;;
17763;SDS011;22245;52.832;13.816;2023-04-24T16:03:39;1.23;;;1.10;;
17763;SDS011;22245;52.832;13.816;2023-04-24T16:07:01;2.53;;;1.30;;
17763;SDS011;22245;52.832;13.816;2023-04-24T16:10:23;1.67;;;1.17;;
17763;SDS011;22245;52.832;13.816;2023-04-24T16:13:45;1.20;;;1.00;;
17763;SDS011;22245;52.832;13.816;2023-04-24T16:17:07;1.25;;;1.13;;
17763;SDS011;22245;52.832;13.816;2023-04-24T16:20:30;3.45;;;1.20;;
17763;SDS011;22245;52.832;13.816;2023-04-24T16:23:52;2.97;;;1.20;;
17763;SDS011;22245;52.832;13.816;2023-04-24T16:27:13;1.50;;;1.20;;
17763;SDS011;22245;52.832;13.816;2023-04-24T16:30:35;2.08;;;1.20;;
17763;SDS011;22245;52.832;13.816;2023-04-24T16:33:58;1.80;;;1.10;;
17763;SDS011;22245;52.832;13.816;2023-04-24T16:37:21;2.08;;;1.08;;
17763;SDS011;22245;52.832;13.816;2023-04-24T16:40:43;1.20;;;1.10;;
17763;SDS011;22245;52.832;13.816;2023-04-24T16:44:05;1.42;;;1.23;;
17763;SDS011;22245;52.832;13.816;2023-04-24T16:47:26;3.55;;;1.42;;
17763;SDS011;22245;52.832;13.816;2023-04-24T16:50:48;3.90;;;1.50;;
17763;SDS011;22245;52.832;13.816;2023-04-24T16:54:11;4.20;;;1.40;;
17763;SDS011;22245;52.832;13.816;2023-04-24T16:57:32;1.98;;;1.10;;
17763;SDS011;22245;52.832;13.816;2023-04-24T17:00:55;3.13;;;1.50;;
17763;SDS011;22245;52.832;13.816;2023-04-24T17:04:18;1.38;;;1.27;;
17763;SDS011;22245;52.832;13.816;2023-04-24T17:07:40;1.60;;;1.50;;
17763;SDS011;22245;52.832;13.816;2023-04-24T17:11:03;1.35;;;1.10;;
17763;SDS011;22245;52.832;13.816;2023-04-24T17:14:25;3.50;;;1.40;;
17763;SDS011;22245;52.832;13.816;2023-04-24T17:17:46;1.30;;;1.20;;
17763;SDS011;22245;52.832;13.816;2023-04-24T17:21:09;1.73;;;1.35;;
17763;SDS011;22245;52.832;13.816;2023-04-24T17:24:30;4.40;;;1.40;;
17763;SDS011;22245;52.832;13.816;2023-04-24T17:27:53;1.50;;;1.20;;
17763;SDS011;22245;52.832;13.816;2023-04-24T17:31:15;5.70;;;1.38;;
17763;SDS011;22245;52.832;13.816;2023-04-24T17:34:36;2.05;;;1.15;;
17763;SDS011;22245;52.832;13.816;2023-04-24T17:37:58;1.40;;;1.20;;
17763;SDS011;22245;52.832;13.816;2023-04-24T17:41:20;1.55;;;1.17;;
17763;SDS011;22245;52.832;13.816;2023-04-24T17:44:43;2.13;;;1.20;;
17763;SDS011;22245;52.832;13.816;2023-04-24T17:48:05;2.40;;;1.30;;
17763;SDS011;22245;52.832;13.816;2023-04-24T17:51:27;1.90;;;1.25;;
17763;SDS011;22245;52.832;13.816;2023-04-24T17:54:49;2.80;;;1.42;;
17763;SDS011;22245;52.832;13.816;2023-04-24T17:58:10;2.80;;;1.20;;
17763;SDS011;22245;52.832;13.816;2023-04-24T18:01:34;1.20;;;1.10;;
17763;SDS011;22245;52.832;13.816;2023-04-24T18:04:56;1.20;;;1.10;;
17763;SDS011;22245;52.832;13.816;2023-04-24T18:08:18;2.10;;;1.15;;
17763;SDS011;22245;52.832;13.816;2023-04-24T18:11:39;1.15;;;1.05;;
17763;SDS011;22245;52.832;13.816;2023-04-24T18:15:01;1.20;;;0.90;;
17763;SDS011;22245;52.832;13.816;2023-04-24T18:18:34;1.35;;;1.00;;
17763;SDS011;22245;52.832;13.816;2023-04-24T18:21:56;1.10;;;1.00;;
17763;SDS011;22245;52.832;13.816;2023-04-24T18:25:19;3.10;;;0.80;;
17763;SDS011;22245;52.832;13.816;2023-04-24T18:28:45;1.48;;;1.02;;
17763;SDS011;22245;52.832;13.816;2023-04-24T18:32:08;1.17;;;0.90;;
17763;SDS011;22245;52.832;13.816;2023-04-24T18:35:31;1.38;;;1.13;;
17763;SDS011;22245;52.832;13.816;2023-04-24T18:38:53;2.15;;;1.58;;
17763;SDS011;22245;52.832;13.816;2023-04-24T18:42:14;2.60;;;1.58;;
17763;SDS011;22245;52.832;13.816;2023-04-24T18:45:36;2.55;;;1.48;;
17763;SDS011;22245;52.832;13.816;2023-04-24T18:48:58;2.40;;;1.58;;
17763;SDS011;22245;52.832;13.816;2023-04-24T18:52:21;1.50;;;1.35;;
17763;SDS011;22245;52.832;13.816;2023-04-24T18:55:43;1.73;;;1.48;;
17763;SDS011;22245;52.832;13.816;2023-04-24T18:59:05;2.22;;;1.13;;
17763;SDS011;22245;52.832;13.816;2023-04-24T19:02:27;1.27;;;1.13;;
17763;SDS011;22245;52.832;13.816;2023-04-24T19:05:49;3.03;;;1.10;;
17763;SDS011;22245;52.832;13.816;2023-04-24T19:09:12;1.73;;;1.00;;
17763;SDS011;22245;52.832;13.816;2023-04-24T19:12:33;1.60;;;0.90;;
17763;SDS011;22245;52.832;13.816;2023-04-24T19:15:55;1.40;;;1.02;;
17763;SDS011;22245;52.832;13.816;2023-04-24T19:19:17;4.18;;;0.80;;
17763;SDS011;22245;52.832;13.816;2023-04-24T19:22:38;0.82;;;0.80;;
17763;SDS011;22245;52.832;13.816;2023-04-24T19:26:01;1.48;;;0.70;;
17763;SDS011;22245;52.832;13.816;2023-04-24T19:29:23;3.72;;;0.60;;
17763;SDS011;22245;52.832;13.816;2023-04-24T19:32:45;0.82;;;0.57;;
17763;SDS011;22245;52.832;13.816;2023-04-24T19:36:07;1.42;;;0.70;;
17763;SDS011;22245;52.832;13.816;2023-04-24T19:39:29;0.90;;;0.60;;
17763;SDS011;22245;52.832;13.816;2023-04-24T19:42:53;4.32;;;0.60;;
17763;SDS011;22245;52.832;13.816;2023-04-24T19:46:14;1.17;;;0.63;;
17763;SDS011;22245;52.832;13.816;2023-04-24T19:49:36;1.23;;;0.80;;
17763;SDS011;22245;52.832;13.816;2023-04-24T19:52:58;2.47;;;0.60;;
17763;SDS011;22245;52.832;13.816;2023-04-24T19:56:20;1.40;;;0.60;;
17763;SDS011;22245;52.832;13.816;2023-04-24T19:59:42;0.60;;;0.55;;
17763;SDS011;22245;52.832;13.816;2023-04-24T20:03:04;1.57;;;0.80;;
17763;SDS011;22245;52.832;13.816;2023-04-24T20:06:26;0.57;;;0.57;;
17763;SDS011;22245;52.832;13.816;2023-04-24T20:09:48;0.80;;;0.60;;
17763;SDS011;22245;52.832;13.816;2023-04-24T20:13:09;0.70;;;0.70;;
17763;SDS011;22245;52.832;13.816;2023-04-24T20:16:32;0.90;;;0.73;;
17763;SDS011;22245;52.832;13.816;2023-04-24T20:19:53;1.97;;;0.90;;
17763;SDS011;22245;52.832;13.816;2023-04-24T20:23:15;0.93;;;0.80;;
17763;SDS011;22245;52.832;13.816;2023-04-24T20:26:37;1.13;;;0.90;;
17763;SDS011;22245;52.832;13.816;2023-04-24T20:29:58;1.77;;;1.20;;
17763;SDS011;22245;52.832;13.816;2023-04-24T20:33:21;1.20;;;1.10;;
17763;SDS011;22245;52.832;13.816;2023-04-24T20:36:44;1.40;;;1.00;;
17763;SDS011;22245;52.832;13.816;2023-04-24T20:40:09;2.07;;;1.20;;
17763;SDS011;22245;52.832;13.816;2023-04-24T20:43:33;1.70;;;1.10;;
17763;SDS011;22245;52.832;13.816;2023-04-24T20:46:54;1.53;;;1.07;;
17763;SDS011;22245;52.832;13.816;2023-04-24T20:50:17;2.50;;;1.07;;
17763;SDS011;22245;52.832;13.816;2023-04-24T20:53:39;2.43;;;0.90;;
17763;SDS011;22245;52.832;13.816;2023-04-24T20:57:01;1.50;;;0.90;;
17763;SDS011;22245;52.832;13.816;2023-04-24T21:00:23;1.77;;;0.93;;
17763;SDS011;22245;52.832;13.816;2023-04-24T21:03:46;1.33;;;1.10;;
17763;SDS011;22245;52.832;13.816;2023-04-24T21:07:09;1.90;;;1.20;;
17763;SDS011;22245;52.832;13.816;2023-04-24T21:10:32;1.43;;;1.10;;
17763;SDS011;22245;52.832;13.816;2023-04-24T21:13:53;2.20;;;1.23;;
17763;SDS011;22245;52.832;13.816;2023-04-24T21:17:15;1.30;;;1.10;;
17763;SDS011;22245;52.832;13.816;2023-04-24T21:20:36;3.57;;;1.50;;
17763;SDS011;22245;52.832;13.816;2023-04-24T21:23:59;2.40;;;1.33;;
17763;SDS011;22245;52.832;13.816;2023-04-24T21:27:23;3.30;;;1.40;;
17763;SDS011;22245;52.832;13.816;2023-04-24T21:30:44;2.20;;;1.50;;
17763;SDS011;22245;52.832;13.816;2023-04-24T21:34:06;3.23;;;1.60;;
17763;SDS011;22245;52.832;13.816;2023-04-24T21:37:28;2.90;;;1.63;;
17763;SDS011;22245;52.832;13.816;2023-04-24T21:40:51;3.63;;;1.60;;
17763;SDS011;22245;52.832;13.816;2023-04-24T21:44:12;2.80;;;1.80;;
17763;SDS011;22245;52.832;13.816;2023-04-24T21:47:35;4.63;;;1.60;;
17763;SDS011;22245;52.832;13.816;2023-04-24T21:50:57;4.13;;;1.50;;
17763;SDS011;22245;52.832;13.816;2023-04-24T21:54:18;2.20;;;1.53;;
17763;SDS011;22245;52.832;13.816;2023-04-24T21:57:41;2.93;;;1.93;;
17763;SDS011;22245;52.832;13.816;2023-04-24T22:01:03;3.05;;;1.48;;
17763;SDS011;22245;52.832;13.816;2023-04-24T22:04:25;2.27;;;1.47;;
17763;SDS011;22245;52.832;13.816;2023-04-24T22:07:47;5.10;;;1.87;;
17763;SDS011;22245;52.832;13.816;2023-04-24T22:11:10;2.50;;;1.60;;
17763;SDS011;22245;52.832;13.816;2023-04-24T22:14:46;3.83;;;1.70;;
17763;SDS011;22245;52.832;13.816;2023-04-24T22:18:08;2.33;;;1.60;;
17763;SDS011;22245;52.832;13.816;2023-04-24T22:21:30;3.35;;;1.70;;
17763;SDS011;22245;52.832;13.816;2023-04-24T22:24:52;4.07;;;1.83;;
17763;SDS011;22245;52.832;13.816;2023-04-24T22:28:14;3.60;;;2.20;;
17763;SDS011;22245;52.832;13.816;2023-04-24T22:31:37;4.47;;;2.40;;
17763;SDS011;22245;52.832;13.816;2023-04-24T22:34:59;2.37;;;1.97;;
17763;SDS011;22245;52.832;13.816;2023-04-24T22:38:21;4.70;;;2.40;;
17763;SDS011;22245;52.832;13.816;2023-04-24T22:41:43;2.83;;;2.20;;
17763;SDS011;22245;52.832;13.816;2023-04-24T22:45:05;7.30;;;2.50;;
17763;SDS011;22245;52.832;13.816;2023-04-24T22:48:31;3.37;;;2.00;;
17763;SDS011;22245;52.832;13.816;2023-04-24T22:51:53;3.50;;;2.00;;
17763;SDS011;22245;52.832;13.816;2023-04-24T22:55:16;3.37;;;2.20;;
17763;SDS011;22245;52.832;13.816;2023-04-24T22:58:38;5.57;;;2.30;;
17763;SDS011;22245;52.832;13.816;2023-04-24T23:02:00;2.70;;;2.00;;
17763;SDS011;22245;52.832;13.816;2023-04-24T23:05:23;2.97;;;2.00;;
17763;SDS011;22245;52.832;13.816;2023-04-24T23:08:45;3.97;;;2.33;;
17763;SDS011;22245;52.832;13.816;2023-04-24T23:12:07;5.10;;;2.40;;
17763;SDS011;22245;52.832;13.816;2023-04-24T23:15:28;3.40;;;1.90;;
17763;SDS011;22245;52.832;13.816;2023-04-24T23:18:50;6.63;;;2.63;;
17763;SDS011;22245;52.832;13.816;2023-04-24T23:22:13;6.13;;;2.33;;
17763;SDS011;22245;52.832;13.816;2023-04-24T23:25:34;5.90;;;2.70;;
17763;SDS011;22245;52.832;13.816;2023-04-24T23:28:56;4.17;;;2.27;;
17763;SDS011;22245;52.832;13.816;2023-04-24T23:32:18;3.63;;;2.00;;
17763;SDS011;22245;52.832;13.816;2023-04-24T23:35:39;5.10;;;2.27;;
17763;SDS011;22245;52.832;13.816;2023-04-24T23:39:02;5.80;;;2.37;;
17763;SDS011;22245;52.832;13.816;2023-04-24T23:42:26;3.27;;;2.37;;
17763;SDS011;22245;52.832;13.816;2023-04-24T23:45:47;6.50;;;2.30;;
17763;SDS011;22245;52.832;13.816;2023-04-24T23:49:10;5.67;;;2.37;;
17763;SDS011;22245;52.832;13.816;2023-04-24T23:52:31;5.03;;;2.77;;
17763;SDS011;22245;52.832;13.816;2023-04-24T23:55:55;5.80;;;2.80;;
17763;SDS011;22245;52.832;13.816;2023-04-24T23:59:16;4.33;;;2.90;;
